Ne plus se rappeler de moi
Bonjour et Bienvenue
Pas de session ouverte
Mercredi 29/07/2015
d:\inetpub\wwwroot\acrroussillon\reservation\ACR\IMAGES\IMG1.JPGd:\inetpub\wwwroot\acrroussillon\reservation\ACR\IMAGES\IMG2.JPGd:\inetpub\wwwroot\acrroussillon\reservation\ACR/IMAGES/IMG3.jpg
00:00:00
Horaires du 29/07/2015 (Données à titre indicatif seulement).
Lever du soleil : 06h37 - Coucher du soleil : 21h13 (Heure Locale)
Jour aéronautique : 06h07 - Nuit aéronautique : 21h43 (Heure Locale)
Planning des réservations des aéronefs
Planning des réservations des aéronefs
2015/07/29 06:30
LFMP 290630Z AUTO 27006KT 9999 SCT052 24/15 Q1012
Planning des réservations des aéronefs
2015/07/29 06:36
TAF LFMP 290500Z 2906/3006 VRB03KT 9999 BKN050 OVC140
BECMG 2909/2911 12010KT
BECMG 2916/2918 34015G25KT PROB30
TEMPO 3002/3006 33020G35KT
Informations sur les aéronefs
Informations sur les aéronefs
Modifications des Types de vols
ATTENTION PLUS DE PAIEMENT EN LIGNE DEPUIS LA MAISON
AEROCLUB DU ROUSSILLON. AVENUE MAURICE BELLONTE. 66000 PERPIGNAN. Tel : 04.68.73.48.18 Fax : 09.55.16.18.97 Courriel : aeroclub-roussillon@hotmail.fr
 METAR / TAF
LIENS UTILES
envoyer un e-mail
d:\inetpub\wwwroot\acrroussillon\reservation\ACR/IMAGES/Logo.jpg
Identifiez vous pour interaction
d:\inetpub\wwwroot\acrroussillon\reservation\ACR/IMAGES/Logo.jpg
Aéro-Club du Roussillon